Pocono Pines, Pennsylvania
Current Conditions -  °F | °C
As of 6:53 PM on Saturday 25 Oct 2014 (Local Time) from KMPO Reporting Station
Overcast Overcast  
Wind Chill: 59°   Ceiling: 5500
Heat Index: 59°   Visibility: 10mi
Dew Point: 43°   Wind: 10mph
Humidity: 55%   Direction: 260°W
Pressure: 29.65"   Gusts: NA
Location:  41.12°N, 75.46°W
Report Text: KMPO 252253Z AUTO 26009KT 10SM OVC055 15/06 A2965 RMK AO2 SLP043 T01500061
Loading
Personal Weather Stations






























Interactive Weather Map
Tropical Storm Tracking
New forecast layout! Learn more

10-Day Weather Forecast

Advertisements
Track Severe Weather on mobile